Time;durP1;ratioP1;P1;durP2;ratioP2;P2;SDS_P1;SDS_P2;PMS_P1;PMS_P2;Temp;Humidity;BMP_temperature;BMP_pressure;BME280_temperature;BME280_humidity;BME280_pressure;Samples;Min_cycle;Max_cycle;Signal;HPM_P1;HPM_P2
2022/08/15 00:00:21;;;;;;;7.67;6.80;;;25.00;99.90;;;;;;6159115;23;20401;-93
2022/08/15 00:02:48;;;;;;;9.63;6.53;;;25.00;99.90;;;;;;6157799;23;20399;-93
2022/08/15 00:05:19;;;;;;;10.70;7.70;;;25.00;99.90;;;;;;6157805;23;20187;-93
2022/08/15 00:07:46;;;;;;;8.13;6.83;;;24.90;99.90;;;;;;6157920;23;20440;-93
2022/08/15 00:10:12;;;;;;;8.77;7.17;;;24.90;99.90;;;;;;6158188;23;20397;-94
2022/08/15 00:12:39;;;;;;;8.40;6.57;;;24.90;99.90;;;;;;6158604;23;20393;-92
2022/08/15 00:15:11;;;;;;;10.53;6.93;;;24.90;99.90;;;;;;6159092;23;20420;-93
2022/08/15 00:17:38;;;;;;;10.10;7.00;;;24.90;99.90;;;;;;6158842;23;20470;-92
2022/08/15 00:20:07;;;;;;;9.40;7.43;;;24.90;99.90;;;;;;6163289;23;20495;-93
2022/08/15 00:22:33;;;;;;;8.97;7.47;;;24.80;99.90;;;;;;6158552;23;20462;-93
2022/08/15 00:24:59;;;;;;;8.90;7.33;;;24.80;99.90;;;;;;6161405;23;20768;-93
2022/08/15 00:27:25;;;;;;;8.07;6.90;;;24.80;99.90;;;;;;6163266;23;20396;-93
2022/08/15 00:29:51;;;;;;;12.43;7.00;;;24.80;99.90;;;;;;6166525;23;20559;-93
2022/08/15 00:32:23;;;;;;;10.47;8.30;;;24.80;99.90;;;;;;6169617;23;20385;-93
2022/08/15 00:34:49;;;;;;;10.60;7.77;;;24.70;99.90;;;;;;6166805;23;20711;-92
2022/08/15 00:37:18;;;;;;;9.90;7.50;;;24.70;99.90;;;;;;6158735;23;20435;-93
2022/08/15 00:39:45;;;;;;;9.40;7.60;;;24.70;99.90;;;;;;6159625;23;20405;-93
2022/08/15 00:42:11;;;;;;;10.23;8.90;;;24.70;99.90;;;;;;6158356;23;20388;-93
2022/08/15 00:44:44;;;;;;;8.43;6.80;;;24.70;99.90;;;;;;6158379;23;20412;-93
2022/08/15 00:47:16;;;;;;;9.30;7.50;;;24.60;99.90;;;;;;6158585;23;20404;-93
2022/08/15 00:49:43;;;;;;;9.10;7.70;;;24.60;99.90;;;;;;6158495;23;20739;-93
2022/08/15 00:52:14;;;;;;;9.90;7.90;;;24.60;99.90;;;;;;6160293;23;20385;-92
2022/08/15 00:54:45;;;;;;;10.00;7.10;;;24.60;99.90;;;;;;6158739;23;20887;-93
2022/08/15 00:57:19;;;;;;;9.27;7.57;;;24.50;99.90;;;;;;6158758;23;20816;-93
2022/08/15 00:59:48;;;;;;;8.03;7.23;;;24.50;99.90;;;;;;6158385;23;20885;-93
2022/08/15 01:02:17;;;;;;;9.47;7.17;;;24.50;99.90;;;;;;6158361;23;20412;-93
2022/08/15 01:04:44;;;;;;;10.00;8.33;;;24.50;99.90;;;;;;6158387;23;20467;-93
2022/08/15 01:07:10;;;;;;;12.23;7.60;;;24.40;99.90;;;;;;6160163;23;20431;-92
2022/08/15 01:09:37;;;;;;;8.63;7.70;;;24.40;99.90;;;;;;6134903;23;20416;-94
2022/08/15 01:12:13;;;;;;;7.73;6.53;;;24.40;99.90;;;;;;6135595;23;20470;-93
2022/08/15 01:14:41;;;;;;;10.10;7.33;;;24.40;99.90;;;;;;6160158;23;20989;-93
2022/08/15 01:17:08;;;;;;;9.37;7.83;;;24.40;99.90;;;;;;6163904;23;20443;-92
2022/08/15 01:20:05;;;;;;;10.57;7.70;;;24.40;99.90;;;;;;6139194;23;20505;-93
2022/08/15 01:22:47;;;;;;;9.77;7.90;;;24.40;99.90;;;;;;6134160;23;20406;-93
2022/08/15 01:25:24;;;;;;;10.00;7.83;;;24.30;99.90;;;;;;6150439;23;20415;-93
2022/08/15 01:28:03;;;;;;;9.03;7.30;;;24.30;99.90;;;;;;6133208;23;20775;-93
2022/08/15 01:30:34;;;;;;;9.23;7.57;;;24.30;99.90;;;;;;6133292;23;20426;-93
2022/08/15 01:33:00;;;;;;;10.53;7.13;;;24.20;99.90;;;;;;6133699;23;20403;-93
2022/08/15 01:35:28;;;;;;;7.93;7.10;;;24.20;99.90;;;;;;6133623;23;20549;-91
2022/08/15 01:37:54;;;;;;;8.80;7.00;;;24.10;99.90;;;;;;6133535;23;20194;-92
2022/08/15 01:40:31;;;;;;;11.37;7.20;;;24.10;99.90;;;;;;6134271;23;20417;-93
2022/08/15 01:42:58;;;;;;;9.63;7.37;;;24.10;99.90;;;;;;6133137;23;20881;-93
2022/08/15 01:45:27;;;;;;;10.10;8.10;;;24.10;99.90;;;;;;6132731;23;20433;-93
2022/08/15 01:48:11;;;;;;;9.47;7.43;;;24.10;99.90;;;;;;6158878;23;20418;-92
2022/08/15 01:50:49;;;;;;;9.23;7.13;;;24.10;99.90;;;;;;6133147;23;20943;-93
2022/08/15 01:53:27;;;;;;;8.00;7.20;;;24.10;99.90;;;;;;6132782;23;20450;-92
2022/08/15 01:56:01;;;;;;;9.97;7.97;;;24.10;99.90;;;;;;6132625;23;20485;-93
2022/08/15 01:58:28;;;;;;;12.03;7.77;;;24.10;99.90;;;;;;6133006;23;20391;-92
2022/08/15 02:01:02;;;;;;;11.90;7.67;;;24.00;99.90;;;;;;6133150;23;20420;-93
2022/08/15 02:03:34;;;;;;;10.23;7.90;;;24.10;99.90;;;;;;6159993;23;20371;-92
2022/08/15 02:06:20;;;;;;;9.63;7.70;;;24.00;99.90;;;;;;6136796;23;20517;-92
2022/08/15 02:08:47;;;;;;;15.47;7.50;;;24.00;99.90;;;;;;6136777;23;20403;-92
2022/08/15 02:11:16;;;;;;;11.43;7.40;;;23.90;99.90;;;;;;6132917;23;20509;-93
2022/08/15 02:13:44;;;;;;;10.27;8.63;;;23.90;99.90;;;;;;6132603;23;20391;-92
2022/08/15 02:16:10;;;;;;;10.10;8.07;;;23.80;99.90;;;;;;6159172;23;20451;-92
2022/08/15 02:18:36;;;;;;;10.63;8.03;;;23.80;99.90;;;;;;6133369;23;20382;-92
2022/08/15 02:21:02;;;;;;;11.57;8.87;;;23.80;99.90;;;;;;6133047;23;20430;-92
2022/08/15 02:23:28;;;;;;;9.10;7.37;;;23.80;99.90;;;;;;6133329;23;20168;-93
2022/08/15 02:25:54;;;;;;;11.30;8.90;;;23.80;99.90;;;;;;6133253;23;20421;-93
2022/08/15 02:28:22;;;;;;;10.90;8.60;;;23.80;99.90;;;;;;6132995;23;20509;-93
2022/08/15 02:30:48;;;;;;;17.23;9.00;;;23.80;99.90;;;;;;6159463;23;20414;-93
2022/08/15 02:33:14;;;;;;;13.03;9.50;;;23.70;99.90;;;;;;6133180;23;20396;-93
2022/08/15 02:35:40;;;;;;;14.10;8.00;;;23.70;99.90;;;;;;6133303;23;20450;-92
2022/08/15 02:38:07;;;;;;;13.37;8.40;;;23.70;99.90;;;;;;6133590;23;20380;-93
2022/08/15 02:40:34;;;;;;;10.50;7.97;;;23.70;99.90;;;;;;6133560;23;20445;-93
2022/08/15 02:43:12;;;;;;;11.20;7.53;;;23.70;99.90;;;;;;6133724;23;20872;-93
2022/08/15 02:45:39;;;;;;;12.27;8.10;;;23.70;99.90;;;;;;6161745;23;20395;-93
2022/08/15 02:48:07;;;;;;;8.63;7.10;;;23.70;99.90;;;;;;6134934;23;20413;-92
2022/08/15 02:50:35;;;;;;;10.00;7.43;;;23.70;99.90;;;;;;6136324;23;20411;-94
2022/08/15 02:53:17;;;;;;;8.50;7.33;;;23.70;99.90;;;;;;6132384;23;20424;-93
2022/08/15 02:55:46;;;;;;;10.57;7.63;;;23.70;99.90;;;;;;6156860;23;20454;-93
2022/08/15 02:58:14;;;;;;;9.60;7.33;;;23.70;99.90;;;;;;6132283;23;20856;-93
2022/08/15 03:00:41;;;;;;;10.30;7.23;;;23.70;99.90;;;;;;6132619;23;20558;-93
2022/08/15 03:03:10;;;;;;;11.60;8.20;;;23.70;99.90;;;;;;6132248;23;20382;-93
2022/08/15 03:05:39;;;;;;;10.03;8.00;;;23.70;99.90;;;;;;6132965;23;20743;-92
2022/08/15 03:08:05;;;;;;;11.37;7.40;;;23.60;99.90;;;;;;6132422;23;20397;-91
2022/08/15 03:10:31;;;;;;;9.20;7.13;;;23.60;99.90;;;;;;6132522;23;20508;-93
2022/08/15 03:13:01;;;;;;;10.70;8.10;;;23.50;99.90;;;;;;6132082;23;20394;-93
2022/08/15 03:15:43;;;;;;;11.77;9.23;;;23.50;99.90;;;;;;6132431;23;20449;-93
2022/08/15 03:18:09;;;;;;;10.77;8.47;;;23.50;99.90;;;;;;6158405;23;20832;-93
2022/08/15 03:20:36;;;;;;;9.63;7.80;;;23.50;99.90;;;;;;6132147;23;20420;-93
2022/08/15 03:23:04;;;;;;;11.87;8.10;;;23.50;99.90;;;;;;6133918;23;20394;-92
2022/08/15 03:25:30;;;;;;;12.30;8.87;;;23.40;99.90;;;;;;6157693;23;20417;-94
2022/08/15 03:27:57;;;;;;;11.63;8.80;;;23.40;99.90;;;;;;6133437;23;20394;-92
2022/08/15 03:30:23;;;;;;;10.53;8.00;;;23.40;99.90;;;;;;6133181;23;20412;-93
2022/08/15 03:32:53;;;;;;;11.97;8.87;;;23.40;99.90;;;;;;6133736;23;20420;-92
2022/08/15 03:35:25;;;;;;;10.67;8.13;;;23.40;99.90;;;;;;6133095;23;20448;-92
2022/08/15 03:37:51;;;;;;;9.43;8.20;;;23.50;99.90;;;;;;6136789;23;20979;-93
2022/08/15 03:40:17;;;;;;;10.10;7.60;;;23.50;99.90;;;;;;6134230;23;20410;-93
2022/08/15 03:43:05;;;;;;;10.23;8.33;;;23.40;99.90;;;;;;6133955;23;20167;-92
2022/08/15 03:45:31;;;;;;;12.23;8.97;;;23.50;99.90;;;;;;6136906;23;20499;-93
2022/08/15 03:47:56;;;;;;;10.80;7.70;;;23.40;99.90;;;;;;6131762;23;20488;-93
2022/08/15 03:50:23;;;;;;;9.40;6.97;;;23.40;99.90;;;;;;6131960;23;20439;-92
2022/08/15 03:52:54;;;;;;;12.00;7.93;;;23.40;99.90;;;;;;6157730;23;20238;-93
2022/08/15 03:55:21;;;;;;;9.50;7.93;;;23.40;99.90;;;;;;6131558;23;20469;-93
2022/08/15 03:57:47;;;;;;;8.97;7.33;;;23.40;99.90;;;;;;6131909;23;20397;-93
2022/08/15 04:00:17;;;;;;;11.57;8.13;;;23.40;99.90;;;;;;6129801;23;20424;-93
2022/08/15 04:02:43;;;;;;;9.03;7.60;;;23.30;99.90;;;;;;6131933;23;20386;-92
2022/08/15 04:05:10;;;;;;;10.10;7.47;;;23.30;99.90;;;;;;6157801;23;20390;-93
2022/08/15 04:07:36;;;;;;;10.60;7.90;;;23.30;99.90;;;;;;6150891;23;20447;-92
2022/08/15 04:10:09;;;;;;;9.50;6.90;;;23.20;99.90;;;;;;6157317;23;20402;-93
2022/08/15 04:12:38;;;;;;;10.43;8.00;;;23.20;99.90;;;;;;6158667;23;20816;-93
2022/08/15 04:15:07;;;;;;;11.43;8.30;;;23.20;99.90;;;;;;6157888;23;20488;-93
2022/08/15 04:17:34;;;;;;;10.33;7.83;;;23.20;99.90;;;;;;6157048;23;20394;-93
2022/08/15 04:20:00;;;;;;;11.27;7.80;;;23.20;99.90;;;;;;6157540;23;20414;-93
2022/08/15 04:22:35;;;;;;;11.37;7.40;;;23.20;99.90;;;;;;6158549;23;20477;-93
2022/08/15 04:25:21;;;;;;;11.27;10.00;;;23.10;99.90;;;;;;6157775;23;20405;-92
2022/08/15 04:27:49;;;;;;;9.70;8.07;;;23.20;99.90;;;;;;6163513;23;20378;-92
2022/08/15 04:30:16;;;;;;;10.00;7.40;;;23.20;99.90;;;;;;6156421;23;20403;-93
2022/08/15 04:32:42;;;;;;;11.33;8.20;;;23.20;99.90;;;;;;6156801;23;20886;-93
2022/08/15 04:35:10;;;;;;;11.60;7.53;;;23.10;99.90;;;;;;6156307;23;20765;-91
2022/08/15 04:37:37;;;;;;;10.60;8.10;;;23.10;99.90;;;;;;6157518;23;20481;-92
2022/08/15 04:40:08;;;;;;;11.13;8.07;;;23.20;99.90;;;;;;6156965;23;20401;-93
2022/08/15 04:42:45;;;;;;;9.40;6.50;;;23.10;99.90;;;;;;6160117;23;20423;-93
2022/08/15 04:45:11;;;;;;;10.17;7.63;;;23.10;99.90;;;;;;6160643;23;20795;-94
2022/08/15 04:47:37;;;;;;;12.57;6.97;;;23.10;99.90;;;;;;6162476;23;20387;-91
2022/08/15 04:50:03;;;;;;;16.57;11.17;;;23.10;99.90;;;;;;6158577;23;20175;-94
2022/08/15 04:52:29;;;;;;;9.90;7.40;;;23.10;99.90;;;;;;6156702;23;20389;-92
2022/08/15 04:54:55;;;;;;;9.00;7.50;;;23.10;99.90;;;;;;6158068;23;20409;-92
2022/08/15 04:57:21;;;;;;;10.63;7.60;;;23.10;99.90;;;;;;6158637;23;20495;-93
2022/08/15 04:59:47;;;;;;;9.70;7.50;;;23.10;99.90;;;;;;6158808;23;20393;-93
2022/08/15 05:02:13;;;;;;;8.33;7.30;;;23.10;99.90;;;;;;6160274;23;20579;-93
2022/08/15 05:04:40;;;;;;;9.00;6.70;;;23.20;99.90;;;;;;6157523;23;20215;-93
2022/08/15 05:07:05;;;;;;;9.43;7.53;;;23.20;99.90;;;;;;6155879;23;20490;-93
2022/08/15 05:09:31;;;;;;;12.67;7.30;;;23.20;99.90;;;;;;6133954;23;20504;-93
2022/08/15 05:11:57;;;;;;;11.40;7.73;;;23.20;99.90;;;;;;6135145;23;20172;-93
2022/08/15 05:14:23;;;;;;;10.60;6.70;;;23.20;99.90;;;;;;6134907;23;20179;-93
2022/08/15 05:16:48;;;;;;;15.03;7.57;;;23.20;99.90;;;;;;6159790;23;20211;-93
2022/08/15 05:19:14;;;;;;;9.10;7.17;;;23.30;99.90;;;;;;6134831;23;20419;-93
2022/08/15 05:21:40;;;;;;;13.40;7.83;;;23.30;99.90;;;;;;6147160;23;20161;-93
2022/08/15 05:24:06;;;;;;;9.20;7.00;;;23.40;99.90;;;;;;6134705;23;20243;-92
2022/08/15 05:26:33;;;;;;;9.07;7.80;;;23.40;99.90;;;;;;6133445;23;20712;-93
2022/08/15 05:28:59;;;;;;;12.27;7.67;;;23.50;99.90;;;;;;6132835;23;20165;-93
2022/08/15 05:31:26;;;;;;;10.70;7.83;;;23.50;99.90;;;;;;6159133;23;20416;-94
2022/08/15 05:33:54;;;;;;;9.50;7.10;;;23.50;99.90;;;;;;6132923;23;20382;-93
2022/08/15 05:36:21;;;;;;;10.23;7.20;;;23.60;99.90;;;;;;6158849;23;20502;-94
2022/08/15 05:38:58;;;;;;;11.40;7.60;;;23.60;99.90;;;;;;6133724;23;20864;-91
2022/08/15 05:41:33;;;;;;;11.70;7.67;;;23.70;99.90;;;;;;6133753;23;20931;-93
2022/08/15 05:44:11;;;;;;;11.90;7.53;;;23.70;99.90;;;;;;6133172;23;20876;-93
2022/08/15 05:46:46;;;;;;;12.83;8.57;;;23.80;99.90;;;;;;6160017;23;20388;-93
2022/08/15 05:49:18;;;;;;;9.90;7.60;;;23.90;99.90;;;;;;6133249;23;20393;-93
2022/08/15 05:51:59;;;;;;;9.47;6.80;;;24.00;99.90;;;;;;6132934;23;21021;-93
2022/08/15 05:54:42;;;;;;;10.50;7.13;;;24.10;99.90;;;;;;6133324;23;20414;-93
2022/08/15 05:57:19;;;;;;;8.83;7.30;;;24.10;99.90;;;;;;6139118;23;20450;-93
2022/08/15 05:59:50;;;;;;;10.73;7.63;;;24.20;99.90;;;;;;6131402;23;20408;-93
2022/08/15 06:02:31;;;;;;;9.73;7.53;;;24.30;99.90;;;;;;6130951;23;20391;-94
2022/08/15 06:05:11;;;;;;;9.27;7.60;;;24.30;99.90;;;;;;6130744;23;20403;-93
2022/08/15 06:07:41;;;;;;;13.17;8.67;;;24.40;99.90;;;;;;6133207;23;20443;-92
2022/08/15 06:10:27;;;;;;;8.57;6.70;;;24.40;99.90;;;;;;6156008;23;20426;-92
2022/08/15 06:13:13;;;;;;;9.70;7.40;;;24.50;99.90;;;;;;6157204;23;20427;-94
2022/08/15 06:15:51;;;;;;;9.93;7.37;;;24.60;99.90;;;;;;6158751;23;20434;-93
2022/08/15 06:18:23;;;;;;;11.37;7.40;;;24.70;99.90;;;;;;6155153;23;20431;-93
2022/08/15 06:21:15;;;;;;;9.07;7.50;;;24.80;99.90;;;;;;6157848;23;20420;-93
2022/08/15 06:23:47;;;;;;;9.17;6.13;;;24.80;99.90;;;;;;6157271;23;20391;-93
2022/08/15 06:26:55;;;;;;;8.57;6.93;;;24.90;99.90;;;;;;6156131;23;20426;-93
2022/08/15 06:29:45;;;;;;;8.60;7.10;;;25.00;99.90;;;;;;6157297;23;20419;-93
2022/08/15 06:32:40;;;;;;;12.33;7.90;;;25.00;99.90;;;;;;6156585;23;20739;-93
2022/08/15 06:35:33;;;;;;;10.30;6.83;;;25.20;99.90;;;;;;6101183;23;20413;-93
2022/08/15 06:38:08;;;;;;;9.77;7.40;;;25.20;99.90;;;;;;6155477;23;20443;-94
2022/08/15 06:40:49;;;;;;;9.80;6.50;;;25.30;99.90;;;;;;6154595;23;21094;-92
2022/08/15 06:43:15;;;;;;;10.80;7.10;;;25.30;99.90;;;;;;6152745;23;20424;-93
2022/08/15 06:45:46;;;;;;;8.27;6.80;;;25.40;99.90;;;;;;6155024;23;20424;-93
2022/08/15 06:48:16;;;;;;;9.60;7.53;;;25.50;99.90;;;;;;6155993;23;20205;-93
2022/08/15 06:50:54;;;;;;;9.17;7.67;;;25.50;99.90;;;;;;6152940;23;20417;-93
2022/08/15 06:53:29;;;;;;;8.20;6.50;;;25.60;99.90;;;;;;6159297;23;20570;-93
2022/08/15 06:56:16;;;;;;;10.17;6.67;;;25.70;99.90;;;;;;6153407;23;20905;-93
2022/08/15 06:58:58;;;;;;;10.97;6.57;;;25.80;99.90;;;;;;6155123;23;20419;-92
2022/08/15 07:01:42;;;;;;;9.03;6.63;;;25.80;99.90;;;;;;6155958;23;20416;-93
2022/08/15 07:04:56;;;;;;;10.73;7.80;;;25.90;99.90;;;;;;6151867;23;20385;-92
2022/08/15 07:07:54;;;;;;;7.70;6.90;;;26.00;99.90;;;;;;6123899;23;20926;-93
2022/08/15 07:10:48;;;;;;;8.63;6.60;;;26.10;99.90;;;;;;6154878;23;20409;-93
2022/08/15 07:13:25;;;;;;;8.60;6.23;;;26.20;99.90;;;;;;6152928;23;20392;-93
2022/08/15 07:16:14;;;;;;;8.50;6.57;;;26.20;99.90;;;;;;6155411;23;20453;-93
2022/08/15 07:18:44;;;;;;;9.57;7.07;;;26.30;99.90;;;;;;6154936;23;20725;-93
2022/08/15 07:21:17;;;;;;;7.97;7.10;;;26.40;99.90;;;;;;6154496;23;20417;-93
2022/08/15 07:24:21;;;;;;;9.00;6.83;;;26.40;99.90;;;;;;6154291;23;20391;-93
2022/08/15 07:26:59;;;;;;;12.13;7.30;;;26.50;99.90;;;;;;6153303;23;20401;-93
2022/08/15 07:29:36;;;;;;;9.70;6.90;;;26.60;99.90;;;;;;6154407;23;20401;-93
2022/08/15 07:32:12;;;;;;;9.63;6.43;;;26.70;99.90;;;;;;6151375;23;20462;-93
2022/08/15 07:34:52;;;;;;;10.10;7.27;;;26.80;99.90;;;;;;6149433;23;20487;-93
2022/08/15 07:37:20;;;;;;;10.77;6.50;;;26.90;99.90;;;;;;6152589;23;20540;-93
2022/08/15 07:39:56;;;;;;;8.50;6.63;;;27.00;99.90;;;;;;6154474;23;20393;-93
2022/08/15 07:42:22;;;;;;;7.40;6.47;;;27.00;99.50;;;;;;6151701;23;20400;-93
2022/08/15 07:44:59;;;;;;;7.63;6.27;;;27.10;99.30;;;;;;6152908;23;20419;-93
2022/08/15 07:47:31;;;;;;;8.43;6.17;;;27.20;99.90;;;;;;6149765;23;20411;-92
2022/08/15 07:50:20;;;;;;;8.97;6.60;;;27.30;99.90;;;;;;6151646;23;20410;-93
2022/08/15 07:52:55;;;;;;;7.67;6.17;;;27.40;99.90;;;;;;6151913;23;20428;-94
2022/08/15 07:55:22;;;;;;;8.23;6.47;;;27.50;99.90;;;;;;6156477;23;20423;-93
2022/08/15 07:58:02;;;;;;;7.57;6.20;;;27.60;99.40;;;;;;6150228;23;20365;-94
2022/08/15 08:00:29;;;;;;;7.43;6.00;;;27.70;99.20;;;;;;6151020;23;20512;-93
2022/08/15 08:03:21;;;;;;;7.73;6.63;;;27.80;98.80;;;;;;6153501;23;20894;-93
2022/08/15 08:06:06;;;;;;;9.17;6.03;;;27.90;98.30;;;;;;6152682;23;20422;-93
2022/08/15 08:08:44;;;;;;;8.73;6.67;;;27.90;97.90;;;;;;6153937;23;20621;-93
2022/08/15 08:11:36;;;;;;;7.90;6.67;;;28.00;98.00;;;;;;6153633;23;20425;-94
2022/08/15 08:14:28;;;;;;;8.10;5.87;;;28.20;97.90;;;;;;6149472;23;20473;-93
2022/08/15 08:17:12;;;;;;;7.97;6.10;;;28.20;97.10;;;;;;6093637;23;20461;-94
2022/08/15 08:19:55;;;;;;;9.47;6.30;;;28.30;97.20;;;;;;6147557;23;20419;-93
2022/08/15 08:22:30;;;;;;;7.87;6.27;;;28.40;97.00;;;;;;6152011;23;20874;-93
2022/08/15 08:25:09;;;;;;;6.83;5.90;;;28.50;96.40;;;;;;6149660;23;20397;-93
2022/08/15 08:28:06;;;;;;;6.30;5.70;;;28.70;96.50;;;;;;6151447;23;20630;-93
2022/08/15 08:31:11;;;;;;;7.67;6.30;;;28.80;96.40;;;;;;6145679;23;20960;-93
2022/08/15 08:33:43;;;;;;;8.40;6.57;;;28.90;96.00;;;;;;6116198;23;20403;-93
2022/08/15 08:36:21;;;;;;;7.60;5.90;;;29.00;95.30;;;;;;6159137;23;20474;-93
2022/08/15 08:38:59;;;;;;;6.50;5.47;;;29.10;95.40;;;;;;6152487;23;20453;-93
2022/08/15 08:41:40;;;;;;;6.80;5.30;;;29.20;95.10;;;;;;6151994;23;20404;-94
2022/08/15 08:44:31;;;;;;;5.77;5.23;;;29.20;94.90;;;;;;6152346;23;20442;-94
2022/08/15 08:47:22;;;;;;;6.20;5.37;;;29.20;94.50;;;;;;6151670;23;20503;-92
2022/08/15 08:50:13;;;;;;;8.50;6.60;;;29.30;94.00;;;;;;6151433;23;20411;-93
2022/08/15 08:52:48;;;;;;;6.00;5.30;;;29.40;94.00;;;;;;6153438;23;20398;-94
2022/08/15 08:55:24;;;;;;;6.50;5.50;;;29.40;94.00;;;;;;6154086;23;20886;-94
2022/08/15 08:57:59;;;;;;;6.17;5.57;;;29.50;94.10;;;;;;6154243;23;20380;-93
2022/08/15 09:00:32;;;;;;;7.97;5.73;;;29.70;93.40;;;;;;6155212;23;20789;-94
2022/08/15 09:03:06;;;;;;;6.23;5.40;;;29.80;93.30;;;;;;6153677;23;20377;-93
2022/08/15 09:05:37;;;;;;;7.53;5.40;;;29.90;93.30;;;;;;6153715;23;20423;-94
2022/08/15 09:08:18;;;;;;;7.20;6.07;;;30.00;93.10;;;;;;6156351;23;20441;-94
2022/08/15 09:10:48;;;;;;;7.93;6.47;;;30.10;92.90;;;;;;6158372;23;20482;-94
2022/08/15 09:13:33;;;;;;;6.67;5.97;;;30.30;92.50;;;;;;6156539;23;20782;-93
2022/08/15 09:16:19;;;;;;;7.23;6.20;;;30.60;91.70;;;;;;6131538;23;20459;-93
2022/08/15 09:18:44;;;;;;;6.40;5.23;;;30.80;90.70;;;;;;6132817;23;20385;-93
2022/08/15 09:21:11;;;;;;;9.50;5.97;;;31.00;91.00;;;;;;6157465;23;20917;-93
2022/08/15 09:23:39;;;;;;;6.00;5.50;;;31.10;90.00;;;;;;6156278;23;20637;-94
2022/08/15 09:26:20;;;;;;;7.43;6.63;;;31.20;89.90;;;;;;6132246;23;20447;-94
2022/08/15 09:29:13;;;;;;;6.93;5.77;;;31.20;90.10;;;;;;6158640;23;20379;-93
2022/08/15 09:31:41;;;;;;;8.47;5.70;;;31.20;89.60;;;;;;6132102;23;20413;-94
2022/08/15 09:34:26;;;;;;;6.90;6.20;;;31.20;89.10;;;;;;6162542;23;20373;-93
2022/08/15 09:37:10;;;;;;;8.10;6.43;;;31.20;89.00;;;;;;6140767;23;20449;-93
2022/08/15 09:39:53;;;;;;;7.30;6.10;;;31.20;89.60;;;;;;6136831;23;20894;-94
2022/08/15 09:42:43;;;;;;;6.77;6.03;;;31.30;89.50;;;;;;6133164;23;20417;-94
2022/08/15 09:45:32;;;;;;;7.40;6.70;;;31.30;89.00;;;;;;6130141;23;20743;-95
2022/08/15 09:48:41;;;;;;;6.87;5.67;;;31.30;89.80;;;;;;6130411;23;20384;-94
2022/08/15 09:51:12;;;;;;;8.00;5.90;;;31.30;89.10;;;;;;6128826;23;20425;-93
2022/08/15 09:53:57;;;;;;;6.73;6.00;;;31.40;88.60;;;;;;6131576;23;20396;-93
2022/08/15 09:56:25;;;;;;;7.40;6.60;;;31.40;88.10;;;;;;6131051;23;20452;-93
2022/08/15 09:58:53;;;;;;;6.93;6.20;;;31.40;88.10;;;;;;6135667;23;20719;-93
2022/08/15 10:01:29;;;;;;;7.30;5.97;;;31.40;88.00;;;;;;6128569;23;20420;-93
2022/08/15 10:03:54;;;;;;;9.10;6.30;;;31.30;88.00;;;;;;6130827;23;20413;-93
2022/08/15 10:06:25;;;;;;;8.93;5.83;;;31.20;88.80;;;;;;6129505;23;20440;-94
2022/08/15 10:08:51;;;;;;;6.87;6.20;;;31.20;89.10;;;;;;6150933;23;20190;-95
2022/08/15 10:11:52;;;;;;;7.17;6.43;;;31.00;89.10;;;;;;6155435;23;20747;-93
2022/08/15 10:14:20;;;;;;;6.50;5.80;;;31.00;89.20;;;;;;6155144;23;20184;-94
2022/08/15 10:16:52;;;;;;;6.57;5.90;;;30.90;89.30;;;;;;6156458;23;20448;-93
2022/08/15 10:19:29;;;;;;;8.03;7.23;;;30.80;89.60;;;;;;6156799;23;20401;-94
2022/08/15 10:21:55;;;;;;;6.70;6.07;;;30.80;89.80;;;;;;6155808;23;20412;-93
2022/08/15 10:24:33;;;;;;;6.77;5.53;;;30.70;90.30;;;;;;6157598;23;20410;-93
2022/08/15 10:27:07;;;;;;;5.90;5.30;;;30.70;90.00;;;;;;6160078;23;20404;-94
2022/08/15 10:29:34;;;;;;;7.03;6.20;;;30.70;90.00;;;;;;6163770;23;20734;-93
2022/08/15 10:32:01;;;;;;;5.93;5.33;;;30.70;90.00;;;;;;6152959;23;20400;-93
2022/08/15 10:35:02;;;;;;;7.70;6.33;;;30.70;89.00;;;;;;6153670;23;20522;-93
2022/08/15 10:37:39;;;;;;;6.30;5.67;;;30.80;87.50;;;;;;6152619;23;20424;-93
2022/08/15 10:40:55;;;;;;;6.50;5.77;;;30.80;87.40;;;;;;6154945;23;20443;-94
2022/08/15 10:43:47;;;;;;;6.27;5.70;;;30.80;86.80;;;;;;6042101;23;20431;-94
2022/08/15 10:46:20;;;;;;;7.00;6.30;;;30.80;86.50;;;;;;6124985;23;20479;-94
2022/08/15 10:49:02;;;;;;;6.93;6.23;;;30.80;85.90;;;;;;6154024;23;20449;-93
2022/08/15 10:52:00;;;;;;;8.93;6.70;;;30.70;88.60;;;;;;6153896;23;20419;-93
2022/08/15 10:54:38;;;;;;;8.17;7.13;;;30.70;91.00;;;;;;6154937;23;20423;-94
2022/08/15 10:57:08;;;;;;;6.80;6.03;;;30.70;91.70;;;;;;6154643;23;20492;-92
2022/08/15 10:59:48;;;;;;;7.43;6.63;;;30.70;92.10;;;;;;6162682;23;20731;-93
2022/08/15 11:02:47;;;;;;;6.03;5.43;;;30.70;91.80;;;;;;6159858;23;20409;-94
2022/08/15 11:05:22;;;;;;;10.30;6.07;;;30.80;91.20;;;;;;6155880;23;20519;-93
2022/08/15 11:07:50;;;;;;;6.83;6.13;;;30.90;90.60;;;;;;6156650;23;20878;-94
2022/08/15 11:10:21;;;;;;;7.10;6.40;;;31.00;90.10;;;;;;6157921;23;20420;-93
2022/08/15 11:12:55;;;;;;;7.20;6.50;;;31.00;89.80;;;;;;6154303;23;20386;-93
2022/08/15 11:15:30;;;;;;;7.40;5.70;;;31.10;88.90;;;;;;6156227;23;20471;-93
2022/08/15 11:18:08;;;;;;;8.30;7.13;;;31.10;90.10;;;;;;6155131;23;20377;-93
2022/08/15 11:21:01;;;;;;;7.70;6.77;;;31.10;89.10;;;;;;6153576;23;20427;-94
2022/08/15 11:23:39;;;;;;;7.93;6.40;;;31.00;90.00;;;;;;6154652;23;20470;-93
2022/08/15 11:26:08;;;;;;;7.10;6.40;;;31.00;90.20;;;;;;6154183;23;20805;-93
2022/08/15 11:28:34;;;;;;;8.30;6.50;;;30.90;90.20;;;;;;6154268;23;20383;-93
2022/08/15 11:31:04;;;;;;;8.77;6.57;;;30.90;90.00;;;;;;6152042;23;20454;-92
2022/08/15 11:33:45;;;;;;;7.43;5.90;;;30.90;90.80;;;;;;6156758;23;20380;-93
2022/08/15 11:36:26;;;;;;;7.20;6.50;;;30.70;91.70;;;;;;6156782;23;20462;-93
2022/08/15 11:39:00;;;;;;;7.17;6.27;;;30.50;92.60;;;;;;6156320;23;20392;-93
2022/08/15 11:41:29;;;;;;;6.83;6.10;;;30.20;93.20;;;;;;6157684;23;20390;-94
2022/08/15 11:43:58;;;;;;;6.87;6.17;;;30.00;94.00;;;;;;6156605;23;20446;-92
2022/08/15 11:46:25;;;;;;;7.07;6.17;;;29.80;94.40;;;;;;6159290;23;20408;-93
2022/08/15 11:49:19;;;;;;;9.30;7.27;;;29.60;95.60;;;;;;6157573;23;20886;-93
2022/08/15 11:51:46;;;;;;;7.63;5.83;;;29.30;96.10;;;;;;6159120;23;20399;-93
2022/08/15 11:54:12;;;;;;;6.90;6.10;;;29.20;96.50;;;;;;6157275;23;20388;-94
2022/08/15 11:56:57;;;;;;;7.07;5.90;;;29.00;96.90;;;;;;6161572;23;20460;-93
2022/08/15 11:59:25;;;;;;;8.07;5.80;;;28.90;97.70;;;;;;6158456;23;20181;-93
2022/08/15 12:02:18;;;;;;;8.33;6.20;;;28.80;97.30;;;;;;6155259;23;20412;-93
2022/08/15 12:04:47;;;;;;;7.10;5.97;;;28.60;97.10;;;;;;6154635;23;20428;-93
2022/08/15 12:07:23;;;;;;;6.50;5.20;;;28.50;97.10;;;;;;6157027;23;20424;-94
2022/08/15 12:09:56;;;;;;;7.23;5.97;;;28.40;97.50;;;;;;6137551;23;20438;-94
2022/08/15 12:12:32;;;;;;;7.87;5.80;;;28.30;98.10;;;;;;6132964;23;20434;-94
2022/08/15 12:15:16;;;;;;;6.80;4.80;;;28.20;98.00;;;;;;6130651;23;20485;-94
2022/08/15 12:17:59;;;;;;;5.83;5.23;;;28.20;96.30;;;;;;6131593;23;20514;-93
2022/08/15 12:20:34;;;;;;;6.63;5.50;;;28.20;96.90;;;;;;6133955;23;20415;-94
2022/08/15 12:23:27;;;;;;;5.53;5.03;;;28.20;96.80;;;;;;6131309;23;20416;-93
2022/08/15 12:25:55;;;;;;;4.80;4.23;;;28.20;96.60;;;;;;6076928;23;20439;-93
2022/08/15 12:28:21;;;;;;;7.13;5.27;;;28.20;95.60;;;;;;6129117;23;20396;-94
2022/08/15 12:30:47;;;;;;;5.17;4.60;;;28.20;95.90;;;;;;6157895;23;20421;-93
2022/08/15 12:33:14;;;;;;;7.50;5.40;;;28.20;95.90;;;;;;6158808;23;20371;-94
2022/08/15 12:35:41;;;;;;;4.93;4.43;;;28.10;95.60;;;;;;6141207;23;20990;-95
2022/08/15 12:38:07;;;;;;;5.23;4.67;;;28.10;95.80;;;;;;6131556;23;20389;-93
2022/08/15 12:40:33;;;;;;;8.50;6.00;;;28.10;96.10;;;;;;6159338;23;20416;-93
2022/08/15 12:43:00;;;;;;;6.80;5.57;;;28.00;97.80;;;;;;6130869;23;20379;-93
2022/08/15 12:45:26;;;;;;;8.80;6.43;;;27.90;97.80;;;;;;6136778;23;20416;-93
2022/08/15 12:47:51;;;;;;;8.23;7.03;;;27.80;98.30;;;;;;6125638;23;20471;-93
2022/08/15 12:50:17;;;;;;;8.87;6.37;;;27.60;98.60;;;;;;6123421;23;20503;-91
2022/08/15 12:52:44;;;;;;;7.33;6.63;;;27.60;98.80;;;;;;6121676;23;20235;-92
2022/08/15 12:55:10;;;;;;;6.80;5.60;;;27.50;99.20;;;;;;6123913;23;20179;-93
2022/08/15 12:57:37;;;;;;;7.70;5.87;;;27.40;99.70;;;;;;6150722;23;20475;-92
2022/08/15 13:00:06;;;;;;;6.70;6.03;;;27.40;98.10;;;;;;6154993;23;20417;-94
2022/08/15 13:02:31;;;;;;;6.60;6.00;;;27.40;99.90;;;;;;6128174;23;20394;-93
2022/08/15 13:04:58;;;;;;;8.13;6.37;;;27.30;99.90;;;;;;6153632;23;20715;-91
2022/08/15 13:07:25;;;;;;;5.73;5.23;;;27.30;99.90;;;;;;6133322;23;20250;-93
2022/08/15 13:09:51;;;;;;;9.47;6.63;;;27.20;99.90;;;;;;6154262;23;20466;-94
2022/08/15 13:12:17;;;;;;;6.83;6.00;;;27.20;99.90;;;;;;6153614;23;20480;-94
2022/08/15 13:14:44;;;;;;;8.97;6.67;;;27.20;99.90;;;;;;6154144;23;20616;-93
2022/08/15 13:17:12;;;;;;;10.03;6.73;;;27.30;99.90;;;;;;6154515;23;20873;-93